Potomac, IL (61865)

3:45 PM CDT on July 28, 2016 (GMT -0500)
Pilot Twp | | Change Station

Elev 738 ft 40.26 °N, 87.88 °W | Updated 9 minutes ago

Clear
Clear
84.3 °F
Feels Like 91 °F
N
1.0
Wind Variable Wind from SE
Gusts 3.0 mph

Today
High -- | Low -- °F
--% Chance of Precip.
Yesterday
High -- | Low -- °F
Precip. -- in
Pressure 29.85 in
Visibility 7.0 miles
Clouds Clear
Heat Index 91 °F
Dew Point 74 °F
Humidity 70%
Rainfall 0.08 in
Snow Depth Not available.
5:45 AM 8:09 PM
Waning Crescent, 29% visible
METAR KDNV 282035Z AUTO 00000KT 7SM CLR 29/22 A2985 RMK AO2 T02910217
Pressure 29.85 in
Visibility 7.0 miles
Clouds Clear
Heat Index 91 °F
Dew Point 74 °F
Humidity 70%
Rainfall 0.08 in
Snow Depth Not available.
5:45 AM 8:09 PM
Waning Crescent, 29% visible
METAR KDNV 282035Z AUTO 00000KT 7SM CLR 29/22 A2985 RMK AO2 T02910217

10-Day Weather Forecast

Almanac

Astronomy

Jul. 28, 2016 Rise Set
Actual Time
Civil Twilight
Nautical Twilight
Astronomical Twilight
Moon
Length of Visible Light
Length of Day
Tomorrow will be .
, % of the Moon is Illuminated

Today's Extremes

State Highs State Lows

Community

WunderPhotos

Upload Photos

1,928,206 photos uploaded!

WunderBlog® & News

Nearby

Air Quality

  Air Quality AQ Index Pollutant
Not available.

Snow Depth

Station Depth Elevation

Earthquake Activity

City Distance Mag. Time & Date
Minimum magnitude displayed is 2.5.

Coastal Water Temperatures

Place Temperature

Stations

Nearby Weather Stations

Station Location Temp. Windchill Dew Point Humidity Wind Precip. Elev Updated Type
                   

Watches & Warnings

There are currently no watches in effect.